createdAt,value
2023-03-16T00:01:37.655Z,56.87
2023-03-16T00:06:41.127Z,56.89
2023-03-16T00:11:44.672Z,56.63
2023-03-16T00:16:49.824Z,56.55
2023-03-16T00:21:53.658Z,56.42
2023-03-16T00:26:57.310Z,57.37
2023-03-16T00:32:03.572Z,58.67
2023-03-16T00:37:07.238Z,58.80
2023-03-16T00:42:11.427Z,58.61
2023-03-16T00:47:16.623Z,59.19
2023-03-16T00:52:20.512Z,59.12
2023-03-16T00:57:27.938Z,58.77
2023-03-16T01:02:32.844Z,58.90
2023-03-16T01:07:36.624Z,59.30
2023-03-16T01:12:40.108Z,59.24
2023-03-16T01:17:45.051Z,59.04
2023-03-16T01:22:48.315Z,60.21
2023-03-16T01:27:53.946Z,59.24
2023-03-16T01:32:58.970Z,60.10
2023-03-16T01:38:02.472Z,60.31
2023-03-16T01:43:07.054Z,60.29
2023-03-16T01:48:11.952Z,60.86
2023-03-16T01:53:15.405Z,60.58
2023-03-16T01:58:19.498Z,60.38
2023-03-16T02:03:24.581Z,60.25
2023-03-16T02:08:29.299Z,60.14
2023-03-16T02:13:36.929Z,60.26
2023-03-16T02:18:42.045Z,59.67
2023-03-16T02:23:45.739Z,60.21
2023-03-16T02:29:02.681Z,60.14
2023-03-16T02:34:08.500Z,60.30
2023-03-16T02:39:12.194Z,60.67
2023-03-16T02:44:19.125Z,60.04
2023-03-16T02:49:27.556Z,59.66
2023-03-16T02:54:31.297Z,59.62
2023-03-16T02:59:34.835Z,59.97
2023-03-16T03:04:39.592Z,60.14
2023-03-16T03:09:43.472Z,60.63
2023-03-16T03:14:46.948Z,60.51
2023-03-16T03:19:52.146Z,60.83
2023-03-16T03:24:55.459Z,61.21
2023-03-16T03:29:58.778Z,59.46
2023-03-16T03:35:03.587Z,60.53
2023-03-16T03:40:08.226Z,60.67
2023-03-16T03:45:13.136Z,59.84
2023-03-16T03:50:17.691Z,59.41
2023-03-16T03:55:22.597Z,59.94
2023-03-16T04:00:26.040Z,59.87
2023-03-16T04:05:29.600Z,59.84
2023-03-16T04:10:34.657Z,59.95
2023-03-16T04:15:38.826Z,59.98
2023-03-16T04:20:42.185Z,59.77
2023-03-16T04:25:47.517Z,60.99
2023-03-16T04:30:51.194Z,60.80
2023-03-16T04:35:54.613Z,60.22
2023-03-16T04:40:59.388Z,59.77
2023-03-16T04:46:03.915Z,60.26
2023-03-16T04:51:07.763Z,60.29
2023-03-16T04:56:18.278Z,60.50
2023-03-16T05:01:22.188Z,60.44
2023-03-16T05:06:25.636Z,60.57
2023-03-16T05:11:30.640Z,60.96
2023-03-16T05:16:34.140Z,60.42
2023-03-16T05:21:38.897Z,60.09
2023-03-16T05:26:43.845Z,60.58
2023-03-16T05:31:48.103Z,61.35
2023-03-16T05:36:52.002Z,61.48
2023-03-16T05:41:56.905Z,61.41
2023-03-16T05:47:00.427Z,62.05
2023-03-16T05:52:04.388Z,61.58
2023-03-16T05:57:09.457Z,62.51
2023-03-16T06:02:13.181Z,61.41
2023-03-16T06:07:16.723Z,62.22
2023-03-16T06:12:21.636Z,62.14
2023-03-16T06:17:24.757Z,62.93
2023-03-16T06:22:28.475Z,61.96
2023-03-16T06:27:33.291Z,62.06
2023-03-16T06:32:38.253Z,62.36
2023-03-16T06:37:42.014Z,62.41
2023-03-16T06:42:47.494Z,62.35
2023-03-16T06:47:51.261Z,62.83
2023-03-16T06:52:54.920Z,63.58
2023-03-16T06:57:59.800Z,64.55
2023-03-16T07:03:03.462Z,63.35
2023-03-16T07:08:07.090Z,63.77
2023-03-16T07:13:12.076Z,63.92
2023-03-16T07:18:15.339Z,63.73
2023-03-16T07:23:20.184Z,63.67
2023-03-16T07:28:25.180Z,63.72
2023-03-16T07:33:28.794Z,63.33
2023-03-16T07:38:32.734Z,62.53
2023-03-16T07:43:37.876Z,63.63
2023-03-16T07:48:41.046Z,62.33
2023-03-16T07:53:44.613Z,62.62
2023-03-16T07:58:49.517Z,62.68
2023-03-16T08:03:53.828Z,62.06
2023-03-16T08:08:57.373Z,61.83
2023-03-16T08:14:02.184Z,62.01
2023-03-16T08:19:05.733Z,61.74
2023-03-16T08:24:19.548Z,61.89
2023-03-16T08:29:27.790Z,61.91
2023-03-16T08:34:32.235Z,61.50
2023-03-16T08:39:35.971Z,62.35
2023-03-16T08:44:41.566Z,61.87
2023-03-16T08:49:45.521Z,62.35
2023-03-16T08:55:02.023Z,62.69
2023-03-16T09:00:13.384Z,62.30
2023-03-16T09:05:20.024Z,62.24
2023-03-16T09:10:24.446Z,62.55
2023-03-16T09:15:29.368Z,61.76
2023-03-16T09:20:33.292Z,61.31
2023-03-16T09:25:37.033Z,61.36
2023-03-16T09:30:42.452Z,60.87
2023-03-16T09:35:46.525Z,60.84
2023-03-16T09:40:57.649Z,60.24
2023-03-16T09:46:09.695Z,59.99
2023-03-16T09:51:21.879Z,58.88
2023-03-16T09:56:32.390Z,58.87
2023-03-16T10:01:48.679Z,59.80
2023-03-16T10:07:04.004Z,59.47
2023-03-16T10:12:10.093Z,59.78
2023-03-16T10:17:18.578Z,59.31
2023-03-16T10:22:26.842Z,59.42
2023-03-16T10:27:33.024Z,59.69
2023-03-16T10:32:38.761Z,60.23
2023-03-16T10:37:42.794Z,60.76
2023-03-16T10:42:47.092Z,60.61
2023-03-16T10:47:52.112Z,59.49
2023-03-16T10:52:58.251Z,59.61
2023-03-16T10:58:03.681Z,59.14
2023-03-16T11:03:24.671Z,59.15
2023-03-16T11:08:32.708Z,59.51
2023-03-16T11:13:38.938Z,58.83
2023-03-16T11:18:47.843Z,59.08
2023-03-16T11:23:56.327Z,59.85
2023-03-16T11:29:09.560Z,59.35
2023-03-16T11:34:26.018Z,58.61
2023-03-16T11:39:34.932Z,58.73
2023-03-16T11:44:47.496Z,58.91
2023-03-16T11:50:00.084Z,58.35
2023-03-16T11:55:19.768Z,58.90
2023-03-16T12:00:33.334Z,58.42
2023-03-16T12:05:55.498Z,59.44
2023-03-16T12:11:04.919Z,59.07
2023-03-16T12:16:14.413Z,59.16
2023-03-16T12:21:23.330Z,59.89
2023-03-16T12:26:33.211Z,58.89
2023-03-16T12:31:43.258Z,59.94
2023-03-16T12:37:13.739Z,59.81
2023-03-16T12:42:37.690Z,59.96
2023-03-16T12:47:54.676Z,59.50
2023-03-16T12:53:00.263Z,59.03
2023-03-16T12:58:07.935Z,60.09
2023-03-16T13:03:16.787Z,59.99
2023-03-16T13:08:23.175Z,61.05
2023-03-16T13:13:27.420Z,60.55
2023-03-16T13:18:37.283Z,61.01
2023-03-16T13:24:16.447Z,61.27
2023-03-16T13:29:24.460Z,62.29
2023-03-16T13:34:31.060Z,61.74
2023-03-16T13:39:36.124Z,61.82
2023-03-16T13:44:41.624Z,62.04
2023-03-16T13:49:49.097Z,62.31
2023-03-16T13:54:55.240Z,62.46
2023-03-16T14:00:08.521Z,62.22
2023-03-16T14:05:13.542Z,62.57
2023-03-16T14:10:19.365Z,62.04
2023-03-16T14:15:24.043Z,62.03
2023-03-16T14:20:27.612Z,61.90
2023-03-16T14:25:32.611Z,62.74
2023-03-16T14:30:36.078Z,62.52
2023-03-16T14:35:43.236Z,62.00
2023-03-16T14:40:55.184Z,62.99
2023-03-16T14:45:59.200Z,62.84
2023-03-16T14:51:04.587Z,62.95
2023-03-16T14:56:14.611Z,63.20
2023-03-16T15:01:19.604Z,63.43
2023-03-16T15:06:23.256Z,63.39
2023-03-16T15:11:31.896Z,63.32
2023-03-16T15:16:35.716Z,63.48
2023-03-16T15:21:39.356Z,63.39
2023-03-16T15:26:44.305Z,63.07
2023-03-16T15:31:47.540Z,62.86
2023-03-16T15:36:52.078Z,62.73
2023-03-16T15:41:57.067Z,63.39
2023-03-16T15:47:00.946Z,62.28
2023-03-16T15:52:05.033Z,63.34
2023-03-16T15:57:12.985Z,63.42
2023-03-16T16:02:28.924Z,63.25
2023-03-16T16:07:32.680Z,63.64
2023-03-16T16:12:37.553Z,63.10
2023-03-16T16:17:53.894Z,63.73
2023-03-16T16:23:03.122Z,63.78
2023-03-16T16:28:15.278Z,63.07
2023-03-16T16:33:26.996Z,63.22
2023-03-16T16:38:30.696Z,63.85
2023-03-16T16:43:39.997Z,64.09
2023-03-16T16:48:47.156Z,64.01
2023-03-16T16:53:51.888Z,63.12
2023-03-16T16:58:57.971Z,63.96
2023-03-16T17:04:02.233Z,64.05
2023-03-16T17:09:06.979Z,64.90
2023-03-16T17:14:18.291Z,64.44
2023-03-16T17:19:24.271Z,64.97
2023-03-16T17:24:28.942Z,64.83
2023-03-16T17:29:36.753Z,64.68
2023-03-16T17:34:40.108Z,65.22
2023-03-16T17:39:43.764Z,65.19
2023-03-16T17:44:50.625Z,64.65
2023-03-16T17:49:54.698Z,65.39
2023-03-16T17:54:58.465Z,65.12
2023-03-16T18:00:06.634Z,65.54
2023-03-16T18:05:19.139Z,65.04
2023-03-16T18:10:25.654Z,65.45
2023-03-16T18:15:33.995Z,65.20
2023-03-16T18:20:37.889Z,64.78
2023-03-16T18:25:42.264Z,65.37
2023-03-16T18:30:49.306Z,65.66
2023-03-16T18:35:54.341Z,65.50
2023-03-16T18:40:58.432Z,65.44
2023-03-16T18:46:03.273Z,64.85
2023-03-16T18:51:07.024Z,64.96
2023-03-16T18:56:18.511Z,64.12
2023-03-16T19:01:29.193Z,64.36
2023-03-16T19:06:35.132Z,64.10
2023-03-16T19:11:43.939Z,63.73
2023-03-16T19:16:48.939Z,63.88
2023-03-16T19:21:54.840Z,63.92
2023-03-16T19:26:59.010Z,63.28
2023-03-16T19:32:03.902Z,63.37
2023-03-16T19:37:07.305Z,63.79
2023-03-16T19:42:21.617Z,63.61
2023-03-16T19:47:30.985Z,62.91
2023-03-16T19:52:34.609Z,63.61
2023-03-16T19:57:38.422Z,63.16
2023-03-16T20:02:43.361Z,62.51
2023-03-16T20:07:46.975Z,62.83
2023-03-16T20:12:55.644Z,62.50
2023-03-16T20:18:01.324Z,62.70
2023-03-16T20:23:15.389Z,63.13
2023-03-16T20:28:21.586Z,62.65
2023-03-16T20:33:28.926Z,62.22
2023-03-16T20:38:33.248Z,62.15
2023-03-16T20:43:37.735Z,62.17
2023-03-16T20:48:42.655Z,62.16
2023-03-16T20:53:47.515Z,61.93
2023-03-16T20:58:55.208Z,61.47
2023-03-16T21:04:00.287Z,61.60
2023-03-16T21:09:04.180Z,61.36
2023-03-16T21:14:09.410Z,61.40
2023-03-16T21:19:19.889Z,60.63
2023-03-16T21:24:23.395Z,60.89
2023-03-16T21:29:27.442Z,60.92
2023-03-16T21:34:37.085Z,60.53
2023-03-16T21:39:40.638Z,61.17
2023-03-16T21:44:44.062Z,60.49
2023-03-16T21:49:48.893Z,60.47
2023-03-16T21:54:52.893Z,60.38
2023-03-16T21:59:56.738Z,59.76
2023-03-16T22:05:01.744Z,59.90
2023-03-16T22:10:15.454Z,59.38
2023-03-16T22:15:20.360Z,59.90
2023-03-16T22:20:27.642Z,60.04
2023-03-16T22:25:31.405Z,59.51
2023-03-16T22:30:34.988Z,59.06
2023-03-16T22:35:40.637Z,59.05
2023-03-16T22:40:44.432Z,59.61
2023-03-16T22:45:48.874Z,59.77
2023-03-16T22:50:54.750Z,59.41
2023-03-16T22:55:58.668Z,59.39
2023-03-16T23:01:10.395Z,59.16
2023-03-16T23:06:20.706Z,60.06
2023-03-16T23:11:28.463Z,59.41
2023-03-16T23:23:26.793Z,60.14
2023-03-16T23:28:31.572Z,59.73
2023-03-16T23:33:35.243Z,60.03
2023-03-16T23:38:38.750Z,60.13
2023-03-16T23:43:46.262Z,60.11
2023-03-16T23:48:51.292Z,60.39
2023-03-16T23:53:55.147Z,60.39
2023-03-16T23:59:00.104Z,59.67
